createdAt,value
2018-04-07T00:04:55.465Z,7.30
2018-04-07T00:09:59.958Z,7.30
2018-04-07T00:15:02.820Z,7.25
2018-04-07T00:20:10.059Z,6.10
2018-04-07T00:25:13.872Z,7.43
2018-04-07T00:30:17.815Z,7.35
2018-04-07T00:35:20.716Z,7.28
2018-04-07T00:40:23.919Z,6.00
2018-04-07T00:45:26.881Z,6.05
2018-04-07T00:50:30.512Z,5.47
2018-04-07T00:55:33.637Z,5.72
2018-04-07T01:00:37.555Z,5.80
2018-04-07T01:05:41.818Z,6.40
2018-04-07T01:10:45.164Z,5.60
2018-04-07T01:15:49.258Z,6.40
2018-04-07T01:20:52.568Z,6.00
2018-04-07T01:25:56.435Z,6.70
2018-04-07T01:31:00.405Z,5.78
2018-04-07T01:36:03.338Z,6.20
2018-04-07T01:41:06.136Z,6.00
2018-04-07T01:46:10.113Z,5.73
2018-04-07T01:51:13.363Z,5.90
2018-04-07T01:56:16.267Z,6.43
2018-04-07T02:01:19.511Z,6.30
2018-04-07T02:06:22.585Z,5.60
2018-04-07T02:11:25.490Z,6.17
2018-04-07T02:16:28.538Z,6.03
2018-04-07T02:21:31.506Z,5.80
2018-04-07T02:26:34.378Z,6.03
2018-04-07T02:31:37.708Z,6.18
2018-04-07T02:36:41.926Z,5.85
2018-04-07T02:41:45.201Z,6.03
2018-04-07T02:46:48.010Z,5.80
2018-04-07T02:51:50.818Z,6.33
2018-04-07T02:56:53.641Z,6.20
2018-04-07T03:01:56.457Z,6.50
2018-04-07T03:06:59.260Z,7.07
2018-04-07T03:12:02.161Z,6.70
2018-04-07T03:17:05.324Z,7.97
2018-04-07T03:22:08.136Z,7.85
2018-04-07T03:27:11.080Z,6.33
2018-04-07T03:32:14.336Z,6.18
2018-04-07T03:37:17.152Z,6.90
2018-04-07T03:42:21.160Z,11.90
2018-04-07T03:47:24.265Z,6.65
2018-04-07T03:52:27.059Z,5.97
2018-04-07T03:57:30.128Z,7.20
2018-04-07T04:02:32.933Z,6.50
2018-04-07T04:07:35.770Z,6.28
2018-04-07T04:12:38.721Z,6.30
2018-04-07T04:17:41.795Z,6.45
2018-04-07T04:22:44.665Z,6.30
2018-04-07T04:27:53.158Z,6.40
2018-04-07T04:33:02.915Z,6.60
2018-04-07T04:38:06.912Z,6.50
2018-04-07T04:43:09.849Z,5.80
2018-04-07T04:48:12.732Z,6.82
2018-04-07T04:53:15.579Z,6.70
2018-04-07T04:58:18.371Z,6.97
2018-04-07T05:03:21.182Z,7.40
2018-04-07T05:08:23.980Z,6.95
2018-04-07T05:13:26.772Z,6.90
2018-04-07T05:18:29.579Z,6.90
2018-04-07T05:23:32.431Z,5.75
2018-04-07T05:28:35.262Z,5.40
2018-04-07T05:33:38.139Z,5.35
2018-04-07T05:38:41.020Z,5.40
2018-04-07T05:43:43.866Z,6.50
2018-04-07T05:48:46.775Z,6.53
2018-04-07T05:53:49.558Z,6.40
2018-04-07T05:58:52.343Z,6.50
2018-04-07T06:03:56.395Z,6.50
2018-04-07T06:09:00.097Z,7.28
2018-04-07T06:14:03.964Z,7.50
2018-04-07T06:19:08.913Z,7.55
2018-04-07T06:24:11.771Z,7.50
2018-04-07T06:29:19.953Z,7.50
2018-04-07T06:40:01.131Z,7.87
2018-04-07T06:45:03.926Z,7.72
2018-04-07T06:50:06.755Z,7.70
2018-04-07T06:55:09.536Z,8.07
2018-04-07T07:00:12.342Z,9.00
2018-04-07T07:05:15.182Z,8.60
2018-04-07T07:10:18.126Z,8.90
2018-04-07T07:15:21.046Z,9.18
2018-04-07T07:20:24.185Z,8.30
2018-04-07T07:25:27.132Z,9.00
2018-04-07T07:30:32.864Z,8.70
2018-04-07T07:41:14.620Z,9.30
2018-04-07T07:46:17.704Z,9.18
2018-04-07T07:51:20.532Z,9.30
2018-04-07T07:56:24.454Z,9.45
2018-04-07T08:01:27.615Z,9.55
2018-04-07T08:06:30.662Z,9.37
2018-04-07T08:11:34.714Z,9.10
2018-04-07T08:16:37.798Z,9.00
2018-04-07T08:21:40.574Z,9.23
2018-04-07T08:26:44.026Z,9.40
2018-04-07T08:31:59.633Z,8.77
2018-04-07T08:37:04.754Z,8.80
2018-04-07T08:47:36.924Z,9.35
2018-04-07T08:52:40.330Z,9.40
2018-04-07T08:57:43.178Z,9.50
2018-04-07T09:02:46.896Z,9.80
2018-04-07T09:07:50.005Z,9.70
2018-04-07T09:12:53.368Z,10.00
2018-04-07T09:17:56.809Z,9.20
2018-04-07T09:23:00.046Z,9.57
2018-04-07T09:28:02.901Z,9.50
2018-04-07T09:33:05.751Z,10.10
2018-04-07T09:38:11.018Z,11.07
2018-04-07T09:43:13.965Z,10.45
2018-04-07T09:48:17.671Z,9.90
2018-04-07T09:53:20.585Z,10.32
2018-04-07T09:58:23.514Z,10.23
2018-04-07T10:03:26.368Z,9.50
2018-04-07T10:08:29.935Z,9.70
2018-04-07T10:13:32.783Z,10.63
2018-04-07T10:18:35.635Z,10.07
2018-04-07T10:23:39.517Z,9.90
2018-04-07T10:28:42.745Z,10.30
2018-04-07T10:33:45.696Z,9.02
2018-04-07T10:38:48.516Z,10.00
2018-04-07T10:43:51.493Z,9.70
2018-04-07T10:48:54.427Z,9.13
2018-04-07T10:53:57.371Z,9.85
2018-04-07T10:59:00.263Z,9.98
2018-04-07T11:04:03.253Z,9.80
2018-04-07T11:09:06.321Z,9.82
2018-04-07T11:14:09.333Z,9.88
2018-04-07T11:19:12.435Z,10.15
2018-04-07T11:24:16.549Z,9.90
2018-04-07T11:29:20.669Z,9.40
2018-04-07T11:34:23.738Z,9.40
2018-04-07T11:39:28.415Z,9.33
2018-04-07T11:44:32.870Z,9.85
2018-04-07T11:49:36.224Z,9.00
2018-04-07T11:54:39.139Z,8.83
2018-04-07T11:59:43.897Z,9.00
2018-04-07T12:04:47.580Z,9.63
2018-04-07T12:09:50.758Z,9.25
2018-04-07T12:14:53.706Z,9.37
2018-04-07T12:31:05.021Z,9.10
2018-04-07T12:36:07.968Z,9.48
2018-04-07T12:41:10.815Z,9.20
2018-04-07T12:46:13.877Z,8.57
2018-04-07T12:51:16.866Z,8.50
2018-04-07T12:56:20.457Z,8.50
2018-04-07T13:01:23.357Z,8.27
2018-04-07T13:06:26.179Z,8.43
2018-04-07T13:17:04.636Z,9.00
2018-04-07T13:22:08.560Z,8.30
2018-04-07T13:27:13.271Z,8.10
2018-04-07T13:32:16.081Z,8.13
2018-04-07T13:37:19.072Z,7.82
2018-04-07T13:42:22.353Z,7.50
2018-04-07T13:47:25.985Z,7.93
2018-04-07T13:52:29.654Z,7.60
2018-04-07T13:57:32.621Z,7.50
2018-04-07T14:02:37.312Z,7.70
2018-04-07T14:07:40.917Z,7.10
2018-04-07T14:12:45.154Z,6.62
2018-04-07T14:17:48.915Z,7.30
2018-04-07T14:22:52.122Z,6.30
2018-04-07T14:27:56.316Z,6.60
2018-04-07T14:33:00.087Z,5.60
2018-04-07T14:43:31.671Z,5.65
2018-04-07T14:48:35.962Z,5.60
2018-04-07T14:53:39.415Z,5.60
2018-04-07T14:58:57.913Z,5.40
2018-04-07T15:04:01.075Z,5.53
2018-04-07T15:09:06.342Z,6.80
2018-04-07T15:36:34.122Z,4.70
2018-04-07T15:47:07.564Z,4.43
2018-04-07T15:52:12.121Z,3.40
2018-04-07T15:57:16.039Z,3.50
2018-04-07T16:02:22.308Z,3.30
2018-04-07T16:07:25.554Z,3.70
2018-04-07T16:12:29.285Z,4.60
2018-04-07T16:17:32.563Z,4.40
2018-04-07T16:22:36.817Z,4.10
2018-04-07T16:27:39.888Z,4.70
2018-04-07T16:32:42.957Z,5.00
2018-04-07T16:37:47.923Z,5.10
2018-04-07T16:42:55.608Z,5.72
2018-04-07T16:47:59.870Z,9.43
2018-04-07T16:53:04.114Z,6.30
2018-04-07T16:58:08.649Z,4.70
2018-04-07T17:03:11.833Z,5.00
2018-04-07T17:08:38.379Z,4.65
2018-04-07T17:13:41.480Z,5.90
2018-04-07T17:18:44.382Z,5.47
2018-04-07T17:23:47.377Z,7.30
2018-04-07T17:28:50.319Z,9.75
2018-04-07T17:33:53.590Z,6.20
2018-04-07T17:39:01.952Z,6.90
2018-04-07T17:44:07.114Z,28.85
2018-04-07T17:49:11.991Z,16.85
2018-04-07T17:54:22.186Z,8.10
2018-04-07T18:04:53.796Z,4.35
2018-04-07T18:10:00.165Z,5.18
2018-04-07T18:15:06.036Z,6.62
2018-04-07T18:20:10.265Z,4.30
2018-04-07T18:25:13.672Z,5.33
2018-04-07T18:30:16.690Z,6.18
2018-04-07T18:35:20.522Z,5.50
2018-04-07T18:40:24.171Z,5.03
2018-04-07T18:45:27.559Z,4.93
2018-04-07T18:50:30.629Z,5.70
2018-04-07T18:55:33.571Z,5.70
2018-04-07T19:00:37.303Z,6.00
2018-04-07T19:05:41.296Z,5.37
2018-04-07T19:10:44.317Z,5.23
2018-04-07T19:20:58.902Z,5.50
2018-04-07T19:26:02.787Z,5.75
2018-04-07T19:31:05.698Z,7.05
2018-04-07T19:36:09.333Z,5.90
2018-04-07T19:41:12.672Z,7.45
2018-04-07T19:46:15.600Z,8.50
2018-04-07T19:51:18.606Z,7.95
2018-04-07T19:56:21.633Z,10.60
2018-04-07T20:01:26.148Z,9.40
2018-04-07T20:06:34.240Z,9.07
2018-04-07T20:11:37.657Z,9.50
2018-04-07T20:16:40.641Z,9.20
2018-04-07T20:21:50.833Z,9.15
2018-04-07T20:32:12.150Z,9.35
2018-04-07T20:37:17.701Z,7.62
2018-04-07T20:42:27.638Z,7.15
2018-04-07T20:47:32.277Z,10.45
2018-04-07T21:20:37.774Z,12.70
2018-04-07T21:25:52.456Z,10.70
2018-04-07T21:36:14.211Z,10.13
2018-04-07T21:41:17.709Z,9.38
2018-04-07T21:46:22.702Z,8.82
2018-04-07T21:51:32.658Z,10.50
2018-04-07T21:56:49.683Z,10.43
2018-04-07T22:06:59.212Z,9.15
2018-04-07T22:12:03.054Z,8.82
2018-04-07T22:17:07.048Z,6.80
2018-04-07T22:22:12.019Z,8.60
2018-04-07T22:27:17.886Z,8.95
2018-04-07T22:32:22.497Z,8.60
2018-04-07T22:37:27.599Z,9.17
2018-04-07T22:42:32.174Z,9.10
2018-04-07T23:04:14.762Z,7.78
2018-04-07T23:09:22.444Z,7.25
2018-04-07T23:14:29.331Z,7.40
2018-04-07T23:19:34.049Z,7.53
2018-04-07T23:24:45.436Z,8.45
2018-04-07T23:48:12.555Z,7.90
2018-04-07T23:58:32.722Z,8.30
